Time;durP1;ratioP1;P1;durP2;ratioP2;P2;SDS_P1;SDS_P2;PMS_P1;PMS_P2;Temp;Humidity;BMP_temperature;BMP_pressure;BME280_temperature;BME280_humidity;BME280_pressure;Samples;Min_cycle;Max_cycle;Signal;HPM_P1;HPM_P2
2021/10/24 00:01:08;;;;;;;31.77;20.13;;;6.10;80.80;;;;;;5062141;28;20485;-43
2021/10/24 00:03:34;;;;;;;17.60;12.73;;;6.10;80.70;;;;;;5060999;28;20890;-43
2021/10/24 00:06:02;;;;;;;18.73;11.40;;;6.00;80.70;;;;;;5047932;28;20812;-42
2021/10/24 00:08:30;;;;;;;10.47;8.20;;;6.00;80.80;;;;;;5064378;28;20441;-43
2021/10/24 00:10:57;;;;;;;12.70;9.07;;;6.00;80.70;;;;;;5063041;28;20445;-42
2021/10/24 00:13:24;;;;;;;10.30;7.33;;;6.00;80.70;;;;;;5050316;28;20542;-43
2021/10/24 00:15:51;;;;;;;13.10;8.13;;;5.90;80.70;;;;;;5063789;28;20959;-42
2021/10/24 00:18:18;;;;;;;11.63;8.13;;;5.90;80.70;;;;;;5048358;28;20530;-43
2021/10/24 00:20:45;;;;;;;9.33;7.17;;;5.90;80.70;;;;;;5060131;28;20461;-43
2021/10/24 00:23:13;;;;;;;9.20;7.20;;;5.90;80.70;;;;;;5065723;28;20504;-42
2021/10/24 00:25:40;;;;;;;14.83;7.60;;;5.90;80.70;;;;;;5064318;28;20444;-42
2021/10/24 00:28:07;;;;;;;9.47;7.03;;;5.90;80.80;;;;;;5067363;28;20962;-42
2021/10/24 00:30:46;;;;;;;10.10;7.43;;;5.90;80.90;;;;;;5067894;28;20439;-42
2021/10/24 00:33:15;;;;;;;9.37;8.33;;;5.80;80.90;;;;;;5065932;28;20512;-42
2021/10/24 00:35:42;;;;;;;12.53;7.57;;;5.80;81.00;;;;;;5066462;28;20466;-43
2021/10/24 00:38:08;;;;;;;14.57;9.43;;;5.90;80.80;;;;;;5067046;28;20517;-42
2021/10/24 00:40:35;;;;;;;10.30;8.00;;;5.80;80.90;;;;;;5053984;28;20446;-42
2021/10/24 00:43:02;;;;;;;11.47;8.70;;;5.80;80.80;;;;;;5062504;28;20489;-42
2021/10/24 00:45:29;;;;;;;10.20;7.40;;;5.80;80.90;;;;;;5066203;28;20464;-43
2021/10/24 00:47:56;;;;;;;11.73;8.37;;;5.80;80.90;;;;;;5067050;28;20955;-43
2021/10/24 00:50:25;;;;;;;11.37;8.53;;;5.80;80.90;;;;;;5067960;28;20449;-42
2021/10/24 00:52:52;;;;;;;11.63;8.37;;;5.80;81.00;;;;;;5066144;28;20449;-43
2021/10/24 00:55:21;;;;;;;14.17;8.40;;;5.70;81.20;;;;;;5065042;28;20814;-42
2021/10/24 00:57:48;;;;;;;10.53;7.50;;;5.70;81.20;;;;;;5068623;28;20464;-42
2021/10/24 01:00:16;;;;;;;12.00;7.90;;;5.70;81.40;;;;;;5044449;28;20822;-43
2021/10/24 01:02:43;;;;;;;11.53;8.50;;;5.70;81.40;;;;;;5067534;28;20488;-43
2021/10/24 01:05:11;;;;;;;10.30;8.17;;;5.70;81.40;;;;;;5062887;28;20509;-42
2021/10/24 01:07:40;;;;;;;15.43;7.93;;;5.70;81.40;;;;;;5066964;28;20438;-42
2021/10/24 01:10:08;;;;;;;12.83;7.30;;;5.60;81.40;;;;;;5068029;28;20540;-42
2021/10/24 01:12:38;;;;;;;7.80;6.83;;;5.60;81.30;;;;;;5045061;28;20951;-42
2021/10/24 01:15:05;;;;;;;8.43;7.10;;;5.60;81.30;;;;;;5062844;28;20472;-42
2021/10/24 01:17:32;;;;;;;7.80;7.00;;;5.60;81.30;;;;;;5066837;28;20470;-42
2021/10/24 01:19:59;;;;;;;9.37;8.37;;;5.50;81.40;;;;;;5064086;28;20470;-42
2021/10/24 01:22:26;;;;;;;10.87;7.80;;;5.60;81.30;;;;;;5050046;28;20485;-42
2021/10/24 01:24:53;;;;;;;12.67;9.10;;;5.60;81.10;;;;;;5063840;28;20464;-42
2021/10/24 01:27:21;;;;;;;10.07;8.17;;;5.60;81.00;;;;;;5050480;28;20449;-42
2021/10/24 01:29:47;;;;;;;8.90;7.90;;;5.50;81.20;;;;;;5064644;28;20450;-42
2021/10/24 01:32:14;;;;;;;8.37;7.50;;;5.50;81.20;;;;;;5046208;28;20450;-42
2021/10/24 01:34:48;;;;;;;11.30;8.17;;;5.50;81.20;;;;;;5065048;28;20453;-42
2021/10/24 01:37:17;;;;;;;9.40;7.30;;;5.50;81.10;;;;;;5063889;28;20441;-42
2021/10/24 01:39:44;;;;;;;11.53;6.80;;;5.50;81.00;;;;;;5057562;28;20460;-42
2021/10/24 01:42:10;;;;;;;9.53;7.80;;;5.50;81.00;;;;;;5065151;28;21021;-42
2021/10/24 01:44:37;;;;;;;11.13;8.37;;;5.50;81.10;;;;;;5065564;28;20450;-42
2021/10/24 01:47:04;;;;;;;9.33;6.70;;;5.40;81.20;;;;;;5065082;28;20454;-42
2021/10/24 01:49:31;;;;;;;9.23;6.97;;;5.50;81.20;;;;;;5062467;28;20496;-42
2021/10/24 01:52:01;;;;;;;9.13;6.67;;;5.50;81.10;;;;;;5067890;28;20441;-42
2021/10/24 01:54:28;;;;;;;8.10;6.40;;;5.40;81.20;;;;;;5065892;28;20469;-42
2021/10/24 01:56:54;;;;;;;8.50;7.60;;;5.40;81.20;;;;;;5063582;28;20476;-42
2021/10/24 01:59:22;;;;;;;11.43;6.70;;;5.40;81.20;;;;;;5064286;28;20454;-42
2021/10/24 02:01:48;;;;;;;11.03;6.50;;;5.40;81.10;;;;;;5067331;28;21198;-42
2021/10/24 02:04:15;;;;;;;10.00;7.53;;;5.40;81.10;;;;;;5043691;28;21020;-42
2021/10/24 02:06:42;;;;;;;10.60;7.03;;;5.40;81.20;;;;;;5065264;28;20874;-42
2021/10/24 02:09:09;;;;;;;10.43;7.73;;;5.40;81.00;;;;;;5063398;28;20543;-43
2021/10/24 02:11:35;;;;;;;8.50;7.53;;;5.40;81.10;;;;;;5049951;28;20446;-42
2021/10/24 02:14:02;;;;;;;11.67;7.70;;;5.40;81.10;;;;;;5064770;28;20437;-43
2021/10/24 02:16:29;;;;;;;11.00;7.80;;;5.30;81.30;;;;;;5045890;28;20461;-42
2021/10/24 02:18:56;;;;;;;11.10;8.67;;;5.30;81.50;;;;;;5064390;28;20442;-43
2021/10/24 02:21:22;;;;;;;9.63;7.87;;;5.30;81.40;;;;;;5061694;28;20459;-42
2021/10/24 02:23:49;;;;;;;13.53;9.23;;;5.30;81.50;;;;;;5050442;28;20462;-43
2021/10/24 02:26:16;;;;;;;10.23;7.60;;;5.30;81.20;;;;;;5067508;28;20450;-42
2021/10/24 02:28:42;;;;;;;10.07;8.07;;;5.30;81.20;;;;;;5046731;28;20454;-43
2021/10/24 02:31:09;;;;;;;10.53;7.80;;;5.30;81.30;;;;;;5060458;28;20944;-43
2021/10/24 02:33:36;;;;;;;11.97;7.87;;;5.20;81.30;;;;;;5063490;28;20970;-43
2021/10/24 02:36:04;;;;;;;9.60;7.73;;;5.20;81.40;;;;;;5061167;28;20450;-43
2021/10/24 02:38:30;;;;;;;10.77;7.83;;;5.20;81.40;;;;;;5059085;28;20457;-42
2021/10/24 02:40:57;;;;;;;9.37;8.00;;;5.20;81.40;;;;;;5060134;28;20460;-42
2021/10/24 02:43:24;;;;;;;11.23;7.90;;;5.20;81.60;;;;;;5046878;28;20496;-42
2021/10/24 02:45:50;;;;;;;9.77;8.20;;;5.20;81.70;;;;;;5063363;28;20453;-42
2021/10/24 02:48:17;;;;;;;8.83;7.93;;;5.20;81.80;;;;;;5065614;28;20448;-42
2021/10/24 02:50:44;;;;;;;11.63;9.07;;;5.20;81.90;;;;;;5057979;28;21140;-42
2021/10/24 02:53:10;;;;;;;11.40;8.30;;;5.20;81.90;;;;;;5063468;28;20454;-42
2021/10/24 02:55:37;;;;;;;12.30;8.80;;;5.20;82.10;;;;;;5058756;28;20826;-42
2021/10/24 02:58:04;;;;;;;11.00;9.07;;;5.10;82.00;;;;;;5063223;28;20456;-43
2021/10/24 03:00:31;;;;;;;12.13;8.70;;;5.20;82.00;;;;;;5048436;28;20453;-43
2021/10/24 03:02:57;;;;;;;9.10;8.13;;;5.20;81.90;;;;;;5062869;28;20493;-43
2021/10/24 03:05:24;;;;;;;13.57;8.40;;;5.20;81.70;;;;;;5059030;28;20890;-42
2021/10/24 03:07:53;;;;;;;12.13;7.43;;;5.10;81.70;;;;;;5063543;28;20449;-42
2021/10/24 03:10:20;;;;;;;10.77;7.83;;;5.20;81.40;;;;;;5045544;28;20446;-42
2021/10/24 03:12:47;;;;;;;8.93;7.53;;;5.20;81.30;;;;;;5064486;28;20444;-42
2021/10/24 03:15:14;;;;;;;11.53;7.30;;;5.20;81.00;;;;;;5059010;28;20449;-42
2021/10/24 03:17:40;;;;;;;8.20;6.73;;;5.10;81.10;;;;;;5058296;28;20529;-42
2021/10/24 03:20:08;;;;;;;12.10;7.60;;;5.10;81.30;;;;;;5043517;28;20453;-42
2021/10/24 03:22:34;;;;;;;8.57;6.67;;;5.10;81.30;;;;;;5061743;28;20482;-42
2021/10/24 03:25:01;;;;;;;9.70;7.00;;;5.10;81.40;;;;;;5060629;28;20462;-42
2021/10/24 03:27:28;;;;;;;9.23;7.10;;;5.10;81.50;;;;;;5064657;28;20442;-42
2021/10/24 03:29:57;;;;;;;8.80;7.30;;;5.10;81.30;;;;;;5062489;28;20822;-42
2021/10/24 03:32:23;;;;;;;14.53;7.83;;;5.10;81.30;;;;;;5061492;28;21006;-43
2021/10/24 03:34:50;;;;;;;8.13;7.33;;;5.10;81.40;;;;;;5062185;28;20465;-42
2021/10/24 03:37:17;;;;;;;11.83;6.87;;;5.10;81.40;;;;;;5062756;28;20449;-42
2021/10/24 03:39:45;;;;;;;10.83;7.20;;;5.00;81.70;;;;;;5064574;28;20469;-42
2021/10/24 03:42:11;;;;;;;12.97;6.70;;;5.00;81.40;;;;;;5063694;28;21089;-42
2021/10/24 03:44:38;;;;;;;11.43;7.50;;;5.00;81.60;;;;;;5061117;28;20482;-42
2021/10/24 03:47:05;;;;;;;11.90;7.37;;;5.00;81.70;;;;;;5064208;28;20780;-42
2021/10/24 03:49:32;;;;;;;9.33;6.60;;;5.00;81.50;;;;;;5062967;28;20450;-43
2021/10/24 03:51:58;;;;;;;9.27;7.00;;;5.00;81.50;;;;;;5062958;28;20446;-42
2021/10/24 03:54:25;;;;;;;8.60;7.70;;;5.00;81.40;;;;;;5061585;28;20449;-42
2021/10/24 03:56:52;;;;;;;9.00;6.47;;;5.00;81.10;;;;;;5041415;28;21016;-43
2021/10/24 03:59:19;;;;;;;14.60;7.50;;;5.00;81.10;;;;;;5062327;28;20475;-42
2021/10/24 04:01:46;;;;;;;9.23;7.30;;;5.00;81.00;;;;;;5065125;28;20446;-42
2021/10/24 04:04:13;;;;;;;8.37;7.03;;;4.90;81.10;;;;;;5047514;28;20572;-42
2021/10/24 04:06:39;;;;;;;9.50;7.17;;;5.00;81.30;;;;;;5061862;28;20450;-42
2021/10/24 04:09:06;;;;;;;15.40;8.07;;;4.90;81.10;;;;;;5061782;28;20443;-42
2021/10/24 04:11:33;;;;;;;8.77;6.20;;;4.90;81.30;;;;;;5062047;28;20452;-42
2021/10/24 04:13:59;;;;;;;8.73;7.07;;;4.80;81.50;;;;;;5055597;28;20480;-42
2021/10/24 04:16:26;;;;;;;12.93;7.77;;;4.90;81.60;;;;;;5059648;28;20446;-41
2021/10/24 04:18:53;;;;;;;8.27;6.70;;;4.90;81.50;;;;;;5060584;28;20476;-42
2021/10/24 04:21:20;;;;;;;10.20;7.50;;;4.90;81.20;;;;;;5061649;28;20814;-41
2021/10/24 04:23:47;;;;;;;10.50;6.97;;;4.90;81.30;;;;;;5062245;28;20481;-42
2021/10/24 04:26:13;;;;;;;9.30;7.20;;;4.80;81.30;;;;;;5041913;28;20461;-42
2021/10/24 04:28:40;;;;;;;10.73;7.40;;;4.80;81.30;;;;;;5060305;28;20461;-42
2021/10/24 04:31:07;;;;;;;14.73;7.87;;;4.80;81.40;;;;;;5065692;28;20468;-42
2021/10/24 04:33:34;;;;;;;37.97;19.97;;;4.80;81.40;;;;;;5061988;28;20488;-43
2021/10/24 04:36:01;;;;;;;57.80;31.13;;;4.80;81.50;;;;;;5046789;28;20459;-42
2021/10/24 04:38:29;;;;;;;31.53;18.93;;;4.70;81.50;;;;;;5064660;28;20536;-42
2021/10/24 04:40:56;;;;;;;20.37;13.97;;;4.70;81.50;;;;;;5060741;28;20526;-42
2021/10/24 04:43:23;;;;;;;15.30;10.97;;;4.70;81.50;;;;;;5061214;28;20477;-43
2021/10/24 04:45:49;;;;;;;14.00;10.30;;;4.70;81.60;;;;;;5061224;28;20445;-42
2021/10/24 04:48:17;;;;;;;12.23;8.70;;;4.70;81.50;;;;;;5063282;28;21022;-42
2021/10/24 04:50:44;;;;;;;10.60;8.10;;;4.60;81.50;;;;;;5064425;28;20445;-42
2021/10/24 04:53:10;;;;;;;11.77;7.50;;;4.70;81.60;;;;;;5043826;28;20459;-42
2021/10/24 04:55:38;;;;;;;12.20;8.83;;;;;;;;;;5063274;28;20453;-42
2021/10/24 04:58:05;;;;;;;9.20;7.10;;;4.70;81.30;;;;;;5046478;28;20458;-42
2021/10/24 05:00:32;;;;;;;9.33;7.23;;;4.70;81.40;;;;;;5061440;28;20456;-42
2021/10/24 05:02:59;;;;;;;9.00;6.73;;;4.70;81.40;;;;;;5047072;28;21022;-43
2021/10/24 05:05:26;;;;;;;10.43;6.93;;;4.60;81.40;;;;;;5064356;28;20503;-42
2021/10/24 05:07:53;;;;;;;8.33;7.43;;;4.60;81.60;;;;;;5064695;28;20455;-42
2021/10/24 05:10:20;;;;;;;9.63;6.77;;;4.60;81.50;;;;;;5054357;28;20444;-42
2021/10/24 05:12:47;;;;;;;9.23;6.53;;;4.60;81.20;;;;;;5047334;28;20453;-42
2021/10/24 05:15:13;;;;;;;9.47;6.60;;;4.60;81.20;;;;;;5066511;28;20803;-43
2021/10/24 05:17:40;;;;;;;9.43;7.00;;;4.60;81.40;;;;;;5067451;28;20449;-42
2021/10/24 05:20:07;;;;;;;7.93;6.53;;;4.50;81.50;;;;;;5047541;28;20451;-42
2021/10/24 05:22:34;;;;;;;7.87;6.23;;;4.50;81.70;;;;;;5044938;28;21033;-42
2021/10/24 05:25:01;;;;;;;7.07;6.37;;;4.60;81.70;;;;;;5067925;28;20454;-42
2021/10/24 05:27:28;;;;;;;10.10;7.20;;;4.50;81.70;;;;;;5049488;28;20961;-42
2021/10/24 05:29:58;;;;;;;9.77;7.57;;;4.50;81.90;;;;;;5067506;28;20496;-42
2021/10/24 05:32:24;;;;;;;14.57;8.53;;;4.50;81.90;;;;;;5065786;28;20456;-42
2021/10/24 05:34:51;;;;;;;9.63;6.50;;;4.40;82.10;;;;;;5066198;28;21005;-42
2021/10/24 05:37:18;;;;;;;8.93;6.10;;;4.40;82.10;;;;;;5064381;28;20821;-42
2021/10/24 05:39:44;;;;;;;8.27;7.00;;;4.50;82.10;;;;;;5068373;28;20461;-42
2021/10/24 05:42:11;;;;;;;8.17;6.97;;;4.40;82.10;;;;;;5067161;28;20450;-42
2021/10/24 05:44:38;;;;;;;8.97;6.90;;;4.40;82.10;;;;;;5060653;28;20497;-42
2021/10/24 05:47:05;;;;;;;9.20;8.10;;;4.50;82.00;;;;;;5064744;28;21010;-42
2021/10/24 05:49:31;;;;;;;10.57;6.93;;;4.50;81.90;;;;;;5068228;28;20446;-42
2021/10/24 05:51:58;;;;;;;8.57;6.70;;;4.40;82.00;;;;;;5047446;28;20446;-42
2021/10/24 05:54:25;;;;;;;11.77;7.73;;;4.40;82.20;;;;;;5068375;28;20834;-42
2021/10/24 05:56:52;;;;;;;7.60;6.67;;;4.40;82.10;;;;;;5064946;28;20457;-42
2021/10/24 05:59:18;;;;;;;8.97;7.27;;;4.40;81.90;;;;;;5065887;28;20450;-42
2021/10/24 06:01:45;;;;;;;7.23;6.53;;;4.40;81.80;;;;;;5047311;28;20451;-42
2021/10/24 06:04:12;;;;;;;10.27;7.77;;;4.40;81.80;;;;;;5060747;28;20493;-42
2021/10/24 06:06:39;;;;;;;9.17;6.03;;;4.40;81.90;;;;;;5043786;28;20467;-43
2021/10/24 06:09:06;;;;;;;7.50;6.50;;;4.40;81.90;;;;;;5029391;28;20448;-43
2021/10/24 06:11:47;;;;;;;7.17;6.27;;;4.40;81.90;;;;;;5065416;28;20438;-42
2021/10/24 06:14:14;;;;;;;9.50;6.77;;;4.40;81.90;;;;;;5062760;28;20575;-42
2021/10/24 06:16:41;;;;;;;7.63;6.07;;;4.40;81.70;;;;;;5049040;28;20469;-43
2021/10/24 06:19:08;;;;;;;9.10;6.70;;;4.40;81.90;;;;;;5060207;28;20460;-43
2021/10/24 06:21:35;;;;;;;10.13;7.00;;;4.40;81.80;;;;;;5063336;28;20449;-42
2021/10/24 06:24:02;;;;;;;12.07;6.83;;;4.30;82.00;;;;;;5060125;28;20482;-43
2021/10/24 06:26:28;;;;;;;8.63;7.60;;;4.30;82.20;;;;;;5064508;28;20476;-43
2021/10/24 06:28:55;;;;;;;12.33;8.73;;;4.30;82.30;;;;;;5059958;28;20473;-43
2021/10/24 06:31:22;;;;;;;11.47;7.03;;;4.30;82.40;;;;;;5068189;28;20446;-42
2021/10/24 06:33:49;;;;;;;8.70;6.80;;;4.30;82.50;;;;;;5044165;28;20474;-42
2021/10/24 06:36:16;;;;;;;11.73;7.53;;;4.40;82.60;;;;;;5058809;28;20453;-43
2021/10/24 06:38:43;;;;;;;9.70;5.90;;;4.40;82.60;;;;;;5060373;28;20464;-42
2021/10/24 06:41:10;;;;;;;8.10;6.87;;;4.30;82.70;;;;;;5061201;28;20450;-43
2021/10/24 06:43:37;;;;;;;11.43;7.53;;;4.30;83.00;;;;;;5047064;28;20484;-42
2021/10/24 06:46:04;;;;;;;9.40;7.70;;;4.40;83.10;;;;;;5058087;28;20458;-42
2021/10/24 06:48:30;;;;;;;9.70;7.57;;;4.40;83.20;;;;;;5060870;28;20544;-42
2021/10/24 06:50:57;;;;;;;8.60;6.73;;;4.40;83.20;;;;;;5059790;28;20452;-42
2021/10/24 06:53:24;;;;;;;13.50;6.97;;;4.40;83.30;;;;;;5058961;28;20457;-43
2021/10/24 06:55:51;;;;;;;9.07;6.53;;;4.50;83.50;;;;;;5045154;28;20485;-42
2021/10/24 06:58:17;;;;;;;10.27;7.23;;;4.50;83.50;;;;;;5059301;28;20454;-43
2021/10/24 07:00:44;;;;;;;11.20;7.80;;;4.50;83.60;;;;;;5062369;28;20811;-42
2021/10/24 07:03:11;;;;;;;10.93;8.07;;;4.60;83.70;;;;;;5057870;28;20546;-42
2021/10/24 07:05:38;;;;;;;11.63;8.03;;;4.60;83.80;;;;;;5060152;28;20446;-43
2021/10/24 07:08:06;;;;;;;9.57;7.83;;;4.60;83.90;;;;;;5059113;28;20446;-43
2021/10/24 07:10:35;;;;;;;10.60;7.60;;;4.70;84.00;;;;;;5054524;28;20446;-43
2021/10/24 07:13:02;;;;;;;9.57;7.30;;;4.70;84.10;;;;;;5041316;28;20457;-42
2021/10/24 07:15:28;;;;;;;11.43;8.57;;;4.70;84.20;;;;;;5059583;28;20450;-42
2021/10/24 07:17:55;;;;;;;10.67;6.80;;;4.80;84.30;;;;;;5062406;28;20450;-43
2021/10/24 07:20:22;;;;;;;10.63;8.33;;;4.80;84.50;;;;;;5059928;28;20462;-43
2021/10/24 07:22:49;;;;;;;20.13;14.97;;;4.90;84.50;;;;;;5061095;28;20555;-42
2021/10/24 07:25:16;;;;;;;20.53;15.13;;;4.90;84.70;;;;;;5045488;28;20461;-42
2021/10/24 07:27:43;;;;;;;20.93;13.07;;;4.90;85.20;;;;;;5061426;28;20969;-43
2021/10/24 07:30:11;;;;;;;13.80;11.80;;;5.00;85.60;;;;;;5058890;28;20490;-43
2021/10/24 07:32:39;;;;;;;16.10;10.27;;;5.10;86.20;;;;;;5062406;28;20580;-43
2021/10/24 07:35:07;;;;;;;16.70;12.77;;;5.20;86.30;;;;;;5062539;28;20462;-43
2021/10/24 07:37:33;;;;;;;16.50;11.90;;;5.30;86.40;;;;;;5061327;28;20962;-42
2021/10/24 07:40:00;;;;;;;16.13;11.10;;;5.40;86.40;;;;;;5062937;28;20813;-43
2021/10/24 07:42:27;;;;;;;15.10;13.23;;;5.50;86.40;;;;;;5058885;28;20923;-43
2021/10/24 07:44:56;;;;;;;10.77;9.30;;;5.50;86.30;;;;;;5064270;28;21078;-43
2021/10/24 07:47:23;;;;;;;13.77;9.13;;;5.70;86.20;;;;;;5057577;28;20450;-43
2021/10/24 07:49:49;;;;;;;12.00;9.60;;;5.70;86.30;;;;;;5064028;28;20471;-43
2021/10/24 07:52:17;;;;;;;14.20;10.00;;;5.80;86.00;;;;;;5057650;28;20446;-43
2021/10/24 07:54:45;;;;;;;13.03;9.23;;;5.90;85.70;;;;;;5058200;28;20455;-43
2021/10/24 07:57:12;;;;;;;11.83;9.13;;;5.90;85.60;;;;;;5063450;28;20965;-43
2021/10/24 07:59:39;;;;;;;16.80;8.93;;;6.00;85.40;;;;;;5061740;28;20450;-43
2021/10/24 08:02:06;;;;;;;9.23;7.90;;;6.10;85.20;;;;;;5044431;28;20457;-43
2021/10/24 08:04:33;;;;;;;13.63;9.60;;;6.20;84.60;;;;;;5064273;28;20489;-43
2021/10/24 08:07:03;;;;;;;13.50;11.40;;;6.30;84.30;;;;;;5065468;28;20472;-43
2021/10/24 08:09:30;;;;;;;10.23;8.87;;;6.40;83.90;;;;;;5060884;28;20441;-43
2021/10/24 08:11:58;;;;;;;10.23;7.73;;;6.40;83.20;;;;;;5064147;28;20461;-43
2021/10/24 08:14:25;;;;;;;14.30;11.83;;;6.50;82.80;;;;;;5046754;28;20453;-43
2021/10/24 08:16:52;;;;;;;13.60;10.80;;;6.50;82.70;;;;;;5064790;28;20946;-43
2021/10/24 08:19:18;;;;;;;23.60;15.50;;;6.60;82.60;;;;;;5064361;28;20441;-43
2021/10/24 08:21:47;;;;;;;17.80;14.10;;;6.60;82.20;;;;;;5033560;28;20472;-43
2021/10/24 08:24:13;;;;;;;14.57;10.87;;;6.70;81.90;;;;;;5064084;28;20497;-43
2021/10/24 08:26:41;;;;;;;17.77;14.10;;;6.70;81.80;;;;;;5065001;28;20807;-43
2021/10/24 08:29:08;;;;;;;15.53;12.10;;;6.80;81.30;;;;;;5061300;28;20471;-43
2021/10/24 08:31:34;;;;;;;15.70;11.53;;;6.80;80.90;;;;;;5063595;28;20454;-43
2021/10/24 08:34:02;;;;;;;12.30;11.07;;;6.90;80.90;;;;;;5062000;28;20462;-42
2021/10/24 08:36:29;;;;;;;13.83;10.03;;;6.90;80.60;;;;;;5062411;28;20950;-42
2021/10/24 08:38:57;;;;;;;10.37;7.53;;;7.00;80.10;;;;;;5065124;28;20452;-42
2021/10/24 08:41:29;;;;;;;12.97;9.40;;;7.10;80.00;;;;;;5066349;28;20438;-42
2021/10/24 08:44:01;;;;;;;10.17;7.77;;;7.10;79.90;;;;;;5068062;28;20568;-42
2021/10/24 08:46:28;;;;;;;10.87;9.07;;;7.20;79.80;;;;;;5068487;28;20477;-42
2021/10/24 08:48:56;;;;;;;14.77;11.93;;;7.20;79.80;;;;;;5051810;28;20449;-42
2021/10/24 08:51:28;;;;;;;13.83;11.03;;;7.20;79.70;;;;;;5062699;28;20446;-42
2021/10/24 08:53:56;;;;;;;9.87;8.37;;;7.30;79.60;;;;;;5068735;28;20824;-42
2021/10/24 08:56:25;;;;;;;10.30;8.10;;;7.40;79.60;;;;;;5066894;28;20532;-42
2021/10/24 08:58:52;;;;;;;7.67;6.97;;;7.40;79.50;;;;;;5067976;28;21000;-42
2021/10/24 09:01:19;;;;;;;7.37;6.60;;;7.50;79.40;;;;;;5062817;28;20466;-42
2021/10/24 09:04:11;;;;;;;8.30;6.97;;;7.60;79.40;;;;;;5065364;28;20967;-43
2021/10/24 09:06:55;;;;;;;13.20;7.20;;;7.70;78.80;;;;;;5065967;28;20464;-42
2021/10/24 09:09:26;;;;;;;9.10;7.23;;;7.70;78.30;;;;;;5068063;28;20454;-42
2021/10/24 09:11:58;;;;;;;11.40;7.40;;;7.80;77.80;;;;;;5064120;28;20468;-43
2021/10/24 09:14:57;;;;;;;10.57;7.60;;;7.80;78.10;;;;;;5063998;28;20831;-42
2021/10/24 09:17:26;;;;;;;9.37;7.53;;;7.90;78.30;;;;;;5033175;28;20819;-42
2021/10/24 09:19:58;;;;;;;9.37;6.80;;;8.00;78.10;;;;;;5067540;28;20445;-42
2021/10/24 09:22:30;;;;;;;9.00;6.30;;;8.00;78.20;;;;;;5065829;28;21004;-42
2021/10/24 09:25:14;;;;;;;12.33;7.70;;;8.20;78.00;;;;;;5068093;28;20844;-42
2021/10/24 09:27:44;;;;;;;10.20;6.80;;;8.30;78.00;;;;;;5064729;28;20742;-42
2021/10/24 09:30:35;;;;;;;10.30;8.17;;;8.40;77.90;;;;;;5064787;28;20450;-43
2021/10/24 09:33:09;;;;;;;23.53;21.43;;;8.50;77.50;;;;;;5065325;28;20468;-43
2021/10/24 09:35:37;;;;;;;14.97;13.67;;;8.60;77.10;;;;;;5057315;28;20472;-42
2021/10/24 09:38:06;;;;;;;11.77;9.90;;;8.70;76.20;;;;;;5064447;28;20920;-42
2021/10/24 09:40:35;;;;;;;10.50;8.87;;;8.80;76.50;;;;;;5067414;28;20665;-42
2021/10/24 09:43:20;;;;;;;12.67;11.57;;;8.90;76.30;;;;;;5065434;28;20457;-42
2021/10/24 09:46:09;;;;;;;10.03;9.13;;;9.00;75.80;;;;;;5066200;28;20677;-43
2021/10/24 09:48:37;;;;;;;18.13;15.00;;;9.10;75.60;;;;;;5067622;28;20441;-43
2021/10/24 09:51:17;;;;;;;9.90;8.90;;;9.10;75.20;;;;;;5048340;28;20448;-42
2021/10/24 09:53:46;;;;;;;11.50;10.30;;;9.20;75.10;;;;;;5065451;28;20447;-43
2021/10/24 09:56:18;;;;;;;14.40;13.00;;;9.30;74.80;;;;;;5065460;28;20824;-42
2021/10/24 09:58:48;;;;;;;10.93;9.00;;;9.40;74.30;;;;;;5047047;28;20503;-43
2021/10/24 10:01:17;;;;;;;15.70;8.27;;;9.50;73.80;;;;;;5065183;28;20913;-43
2021/10/24 10:03:45;;;;;;;9.60;6.93;;;9.50;73.50;;;;;;5064403;28;20889;-43
2021/10/24 10:06:17;;;;;;;10.47;9.60;;;9.60;73.30;;;;;;5063406;28;20489;-42
2021/10/24 10:08:44;;;;;;;10.27;8.83;;;9.70;73.10;;;;;;5047353;28;20475;-43
2021/10/24 10:11:27;;;;;;;9.73;8.70;;;9.80;72.60;;;;;;5063839;28;20507;-43
2021/10/24 10:13:58;;;;;;;10.57;7.50;;;10.00;71.90;;;;;;5062610;28;20464;-43
2021/10/24 10:16:36;;;;;;;12.40;7.90;;;10.10;71.60;;;;;;5066766;28;20472;-43
2021/10/24 10:19:05;;;;;;;13.17;8.60;;;10.20;71.30;;;;;;5063147;28;20447;-43
2021/10/24 10:21:41;;;;;;;10.47;7.27;;;10.30;71.60;;;;;;5066753;28;20484;-43
2021/10/24 10:24:33;;;;;;;8.73;6.80;;;10.40;71.10;;;;;;5047042;28;20488;-42
2021/10/24 10:27:20;;;;;;;10.10;8.80;;;10.50;70.90;;;;;;5065740;28;20554;-42
2021/10/24 10:29:55;;;;;;;12.97;10.77;;;10.60;70.30;;;;;;5066397;28;20442;-43
2021/10/24 10:32:37;;;;;;;12.00;11.00;;;10.80;70.20;;;;;;5066796;28;20871;-43
2021/10/24 10:35:09;;;;;;;8.07;7.33;;;10.90;70.10;;;;;;5065756;28;20467;-43
2021/10/24 10:38:01;;;;;;;8.90;6.40;;;11.10;69.20;;;;;;5060939;28;20463;-43
2021/10/24 10:40:35;;;;;;;5.53;4.93;;;11.30;68.90;;;;;;5064465;28;20456;-43
2021/10/24 10:43:19;;;;;;;10.70;5.90;;;11.40;68.40;;;;;;5063849;28;20456;-43
2021/10/24 10:45:47;;;;;;;8.13;5.90;;;11.50;67.40;;;;;;5044243;28;20489;-43
2021/10/24 10:48:41;;;;;;;8.67;5.50;;;11.50;67.40;;;;;;5065492;28;20499;-43
2021/10/24 10:51:22;;;;;;;6.57;4.83;;;11.60;66.90;;;;;;5064209;28;20812;-43
2021/10/24 10:54:02;;;;;;;7.17;6.33;;;11.60;66.60;;;;;;5064262;28;20474;-43
2021/10/24 10:56:32;;;;;;;8.30;6.43;;;11.60;66.60;;;;;;5065802;28;20444;-43
2021/10/24 10:59:00;;;;;;;14.70;9.40;;;11.60;66.60;;;;;;5065534;28;20454;-43
2021/10/24 11:01:27;;;;;;;7.63;6.60;;;11.50;66.50;;;;;;5064926;28;20460;-43
2021/10/24 11:04:17;;;;;;;6.83;6.20;;;11.50;66.70;;;;;;5063771;28;20834;-43
2021/10/24 11:06:47;;;;;;;7.80;4.97;;;11.50;66.90;;;;;;5061758;28;20448;-43
2021/10/24 11:09:38;;;;;;;12.37;7.97;;;11.50;67.20;;;;;;5064552;28;20449;-43
2021/10/24 11:12:08;;;;;;;10.67;7.20;;;11.50;67.10;;;;;;5066532;28;20433;-43
2021/10/24 11:14:45;;;;;;;10.87;7.00;;;11.50;67.40;;;;;;5065480;28;20449;-43
2021/10/24 11:17:33;;;;;;;6.63;5.60;;;11.50;67.50;;;;;;5045801;28;20453;-43
2021/10/24 11:20:16;;;;;;;6.13;5.30;;;11.50;67.30;;;;;;5045060;28;20546;-43
2021/10/24 11:22:52;;;;;;;6.90;4.90;;;11.60;66.70;;;;;;5064369;28;20763;-43
2021/10/24 11:25:39;;;;;;;7.60;6.03;;;11.60;66.60;;;;;;5049478;28;20480;-43
2021/10/24 11:28:12;;;;;;;6.40;4.80;;;11.70;66.50;;;;;;5065550;28;21052;-43
2021/10/24 11:30:39;;;;;;;7.77;5.37;;;11.70;66.40;;;;;;5062372;28;20451;-43
2021/10/24 11:33:07;;;;;;;9.33;6.00;;;11.70;66.10;;;;;;5047499;28;20931;-43
2021/10/24 11:35:39;;;;;;;6.93;4.47;;;11.80;65.70;;;;;;5065941;28;20460;-43
2021/10/24 11:38:10;;;;;;;6.90;4.73;;;11.80;66.20;;;;;;5065951;28;20458;-42
2021/10/24 11:40:41;;;;;;;8.50;6.10;;;11.80;66.70;;;;;;5064231;28;20446;-43
2021/10/24 11:43:15;;;;;;;9.80;5.80;;;11.80;66.30;;;;;;5043105;28;20454;-43
2021/10/24 11:45:44;;;;;;;8.70;4.63;;;11.80;66.40;;;;;;5065522;28;20489;-42
2021/10/24 11:48:21;;;;;;;7.53;5.30;;;11.90;66.10;;;;;;5063679;28;20450;-43
2021/10/24 11:50:58;;;;;;;5.50;4.43;;;11.90;66.20;;;;;;5063804;28;20850;-43
2021/10/24 11:53:32;;;;;;;7.93;5.23;;;11.90;66.80;;;;;;5062810;28;20458;-43
2021/10/24 11:56:05;;;;;;;9.40;5.60;;;11.90;66.50;;;;;;5063319;28;20442;-43
2021/10/24 12:01:17;;;;;;;6.37;5.47;;;11.90;66.40;;;;;;5063070;28;20441;-43
2021/10/24 12:03:57;;;;;;;6.73;5.03;;;11.90;65.70;;;;;;5063880;28;20568;-43
2021/10/24 12:06:57;;;;;;;7.13;5.30;;;11.90;66.00;;;;;;5065363;28;20496;-42
2021/10/24 12:09:50;;;;;;;5.70;4.57;;;12.00;66.20;;;;;;5064823;28;20453;-42
2021/10/24 12:12:19;;;;;;;5.07;4.60;;;12.00;65.60;;;;;;5046734;28;20940;-42
2021/10/24 12:14:46;;;;;;;6.43;4.23;;;12.00;65.60;;;;;;5064439;28;20833;-43
2021/10/24 12:17:20;;;;;;;4.30;3.90;;;12.10;65.60;;;;;;5050479;28;20471;-44
2021/10/24 12:19:49;;;;;;;6.60;4.50;;;12.10;65.70;;;;;;5065873;28;20459;-44
2021/10/24 12:22:16;;;;;;;5.00;4.33;;;12.10;65.40;;;;;;5068734;28;20464;-43
2021/10/24 12:24:50;;;;;;;8.23;4.20;;;12.10;65.50;;;;;;5067270;28;20489;-44
2021/10/24 12:27:22;;;;;;;6.57;4.80;;;12.20;65.50;;;;;;5047771;28;20456;-44
2021/10/24 12:30:09;;;;;;;4.90;3.87;;;12.20;65.00;;;;;;5064314;28;20454;-44
2021/10/24 12:32:52;;;;;;;5.23;3.83;;;12.30;64.70;;;;;;5063483;28;20442;-44
2021/10/24 12:35:18;;;;;;;5.80;3.60;;;12.30;64.30;;;;;;5052041;28;20470;-44
2021/10/24 12:37:56;;;;;;;6.40;4.20;;;12.30;64.50;;;;;;5069776;28;20449;-44
2021/10/24 12:40:26;;;;;;;4.30;3.90;;;12.40;64.50;;;;;;5068137;28;20453;-44
2021/10/24 12:43:02;;;;;;;5.00;4.07;;;12.40;64.70;;;;;;5051244;28;20460;-44
2021/10/24 12:45:29;;;;;;;5.80;3.87;;;12.40;64.50;;;;;;5068843;28;20492;-44
2021/10/24 12:47:58;;;;;;;5.00;4.50;;;12.50;64.70;;;;;;5051768;28;20441;-44
2021/10/24 12:50:37;;;;;;;5.57;3.87;;;12.50;64.90;;;;;;5068320;28;20445;-44
2021/10/24 12:53:07;;;;;;;4.90;3.80;;;12.50;64.30;;;;;;5067157;28;20449;-44
2021/10/24 12:55:35;;;;;;;4.67;4.13;;;12.50;64.30;;;;;;5062654;28;20463;-44
2021/10/24 12:58:02;;;;;;;3.77;3.37;;;12.50;63.90;;;;;;5051241;28;20454;-44
2021/10/24 13:00:30;;;;;;;5.00;3.47;;;12.50;63.90;;;;;;5070300;28;20857;-44
2021/10/24 13:02:58;;;;;;;4.63;3.67;;;12.60;64.00;;;;;;5065512;28;20468;-44